createdAt,value
2022-10-19T00:02:07.048Z,42.90
2022-10-19T00:04:38.350Z,45.88
2022-10-19T00:07:06.398Z,44.77
2022-10-19T00:09:35.806Z,40.00
2022-10-19T00:12:04.845Z,39.95
2022-10-19T00:14:34.077Z,40.72
2022-10-19T00:17:03.904Z,44.83
2022-10-19T00:19:32.869Z,42.00
2022-10-19T00:22:01.215Z,40.60
2022-10-19T00:24:29.721Z,45.80
2022-10-19T00:27:01.017Z,43.28
2022-10-19T00:29:29.836Z,46.17
2022-10-19T00:31:58.169Z,43.95
2022-10-19T00:34:29.146Z,43.53
2022-10-19T00:36:57.622Z,43.13
2022-10-19T00:39:25.790Z,43.35
2022-10-19T00:41:55.692Z,44.15
2022-10-19T00:44:59.930Z,44.88
2022-10-19T00:47:29.714Z,43.22
2022-10-19T00:50:03.227Z,44.90
2022-10-19T00:52:32.699Z,48.40
2022-10-19T00:55:02.056Z,44.70
2022-10-19T00:57:33.874Z,47.75
2022-10-19T01:00:04.296Z,43.58
2022-10-19T01:02:34.714Z,45.08
2022-10-19T01:05:06.285Z,46.60
2022-10-19T01:07:36.468Z,47.40
2022-10-19T01:10:06.835Z,42.67
2022-10-19T01:12:52.859Z,44.35
2022-10-19T01:15:32.359Z,45.22
2022-10-19T01:18:11.057Z,46.97
2022-10-19T01:21:06.578Z,42.70
2022-10-19T01:24:11.364Z,43.75
2022-10-19T01:27:27.281Z,39.90
2022-10-19T01:30:05.523Z,40.70
2022-10-19T01:32:43.195Z,40.65
2022-10-19T01:35:15.238Z,45.58
2022-10-19T01:40:27.901Z,48.08
2022-10-19T01:43:04.098Z,43.10
2022-10-19T01:45:40.800Z,41.25
2022-10-19T01:48:15.918Z,42.63
2022-10-19T01:50:49.151Z,47.05
2022-10-19T01:53:20.307Z,40.30
2022-10-19T01:55:52.353Z,42.70
2022-10-19T01:58:28.223Z,43.67
2022-10-19T02:01:01.698Z,43.20
2022-10-19T02:03:33.190Z,45.25
2022-10-19T02:06:01.476Z,42.38
2022-10-19T02:08:36.203Z,45.33
2022-10-19T02:11:05.574Z,42.15
2022-10-19T02:13:36.589Z,42.42
2022-10-19T02:16:10.869Z,42.83
2022-10-19T02:18:44.467Z,43.28
2022-10-19T02:21:12.590Z,41.15
2022-10-19T02:23:41.439Z,41.80
2022-10-19T02:26:10.204Z,41.25
2022-10-19T02:28:39.752Z,41.28
2022-10-19T02:31:10.435Z,40.10
2022-10-19T02:33:39.607Z,44.97
2022-10-19T02:36:08.784Z,43.33
2022-10-19T02:38:37.481Z,45.30
2022-10-19T02:41:13.478Z,42.85
2022-10-19T02:43:44.926Z,42.33
2022-10-19T02:46:22.157Z,49.30
2022-10-19T02:48:52.450Z,43.50
2022-10-19T02:51:36.009Z,42.30
2022-10-19T02:54:06.400Z,47.03
2022-10-19T02:56:35.686Z,47.03
2022-10-19T02:59:04.582Z,49.13
2022-10-19T03:01:34.379Z,45.15
2022-10-19T03:04:02.882Z,45.40
2022-10-19T03:06:31.142Z,45.17
2022-10-19T03:08:59.475Z,43.60
2022-10-19T03:11:28.062Z,43.47
2022-10-19T03:13:57.273Z,39.97
2022-10-19T03:16:26.077Z,40.50
2022-10-19T03:18:55.952Z,42.45
2022-10-19T03:21:24.353Z,38.88
2022-10-19T03:23:52.613Z,38.25
2022-10-19T03:26:21.239Z,39.60
2022-10-19T03:28:49.871Z,40.25
2022-10-19T03:31:19.196Z,42.00
2022-10-19T03:33:47.558Z,37.65
2022-10-19T03:36:23.395Z,41.55
2022-10-19T03:38:54.002Z,40.58
2022-10-19T03:41:23.667Z,38.47
2022-10-19T03:43:52.506Z,39.85
2022-10-19T03:46:22.018Z,42.13
2022-10-19T03:48:50.727Z,38.95
2022-10-19T03:51:26.057Z,38.88
2022-10-19T03:53:55.039Z,38.05
2022-10-19T03:56:25.628Z,41.03
2022-10-19T03:58:56.716Z,41.20
2022-10-19T04:01:27.131Z,45.05
2022-10-19T04:03:56.730Z,41.10
2022-10-19T04:06:28.656Z,38.92
2022-10-19T04:11:28.032Z,43.03
2022-10-19T04:13:58.591Z,40.60
2022-10-19T04:16:28.795Z,40.22
2022-10-19T04:18:58.352Z,40.53
2022-10-19T04:21:30.524Z,39.97
2022-10-19T04:26:34.523Z,41.27
2022-10-19T04:29:03.331Z,37.53
2022-10-19T04:31:31.707Z,42.15
2022-10-19T04:34:01.200Z,47.63
2022-10-19T04:36:31.133Z,50.42
2022-10-19T04:39:02.937Z,49.70
2022-10-19T04:44:03.241Z,43.45
2022-10-19T04:46:32.184Z,42.58
2022-10-19T04:49:01.193Z,42.75
2022-10-19T04:51:31.584Z,40.58
2022-10-19T04:54:00.122Z,45.10
2022-10-19T04:56:31.142Z,45.13
2022-10-19T04:59:05.888Z,45.40
2022-10-19T05:01:33.899Z,45.47
2022-10-19T05:04:05.916Z,49.25
2022-10-19T05:09:04.012Z,46.13
2022-10-19T05:11:34.261Z,43.50
2022-10-19T05:14:16.923Z,41.58
2022-10-19T05:16:49.716Z,49.28
2022-10-19T05:19:19.304Z,42.85
2022-10-19T05:21:56.133Z,47.13
2022-10-19T05:24:25.199Z,52.50
2022-10-19T05:26:56.249Z,55.25
2022-10-19T05:29:25.224Z,46.73
2022-10-19T05:31:55.607Z,51.63
2022-10-19T05:34:23.763Z,53.78
2022-10-19T05:36:53.341Z,52.25
2022-10-19T05:39:21.947Z,53.05
2022-10-19T05:41:50.815Z,66.53
2022-10-19T05:44:21.959Z,76.38
2022-10-19T05:46:53.188Z,97.90
2022-10-19T05:49:24.135Z,79.32
2022-10-19T05:51:54.363Z,66.93
2022-10-19T05:54:28.602Z,70.47
2022-10-19T05:56:59.616Z,70.22
2022-10-19T05:59:28.767Z,60.23
2022-10-19T06:01:57.179Z,52.92
2022-10-19T06:04:27.452Z,49.13
2022-10-19T06:06:59.382Z,55.42
2022-10-19T06:12:01.828Z,47.55
2022-10-19T06:14:30.167Z,45.88
2022-10-19T06:16:58.540Z,48.20
2022-10-19T06:19:32.897Z,46.40
2022-10-19T06:22:03.732Z,43.13
2022-10-19T06:24:34.254Z,46.53
2022-10-19T06:27:04.576Z,42.70
2022-10-19T06:29:39.604Z,44.67
2022-10-19T06:32:08.883Z,38.72
2022-10-19T06:34:38.656Z,40.72
2022-10-19T06:37:12.931Z,31.88
2022-10-19T06:39:45.885Z,29.70
2022-10-19T06:42:15.960Z,29.80
2022-10-19T06:44:44.409Z,33.70
2022-10-19T06:47:13.092Z,31.33
2022-10-19T06:49:46.150Z,28.38
2022-10-19T06:52:19.518Z,27.08
2022-10-19T06:54:49.506Z,31.10
2022-10-19T06:57:22.805Z,30.52
2022-10-19T06:59:53.032Z,25.52
2022-10-19T07:02:22.176Z,27.52
2022-10-19T07:04:55.744Z,23.33
2022-10-19T07:07:25.438Z,21.63
2022-10-19T07:10:01.767Z,21.35
2022-10-19T07:12:33.699Z,17.35
2022-10-19T07:15:03.555Z,18.02
2022-10-19T07:17:34.943Z,15.25
2022-10-19T07:20:04.305Z,15.15
2022-10-19T07:22:39.894Z,16.77
2022-10-19T07:25:11.420Z,16.75
2022-10-19T07:27:45.269Z,19.00
2022-10-19T07:30:14.461Z,19.27
2022-10-19T07:32:47.035Z,17.45
2022-10-19T07:35:19.508Z,18.05
2022-10-19T07:37:49.093Z,18.55
2022-10-19T07:40:19.473Z,15.45
2022-10-19T07:42:49.860Z,16.02
2022-10-19T07:45:18.411Z,14.20
2022-10-19T07:47:50.034Z,15.02
2022-10-19T07:50:28.254Z,15.13
2022-10-19T07:53:05.578Z,15.57
2022-10-19T07:55:36.945Z,16.00
2022-10-19T07:58:08.275Z,13.95
2022-10-19T08:06:04.760Z,13.38
2022-10-19T08:08:36.922Z,16.93
2022-10-19T08:11:11.846Z,14.85
2022-10-19T08:13:41.365Z,15.73
2022-10-19T08:16:25.440Z,15.18
2022-10-19T08:19:00.912Z,15.73
2022-10-19T08:21:31.403Z,12.75
2022-10-19T08:24:04.560Z,14.10
2022-10-19T08:26:39.097Z,13.27
2022-10-19T08:29:11.552Z,16.45
2022-10-19T08:31:46.762Z,19.60
2022-10-19T08:34:17.572Z,14.15
2022-10-19T08:36:46.773Z,14.73
2022-10-19T08:39:19.321Z,15.52
2022-10-19T08:42:03.782Z,11.82
2022-10-19T08:44:56.563Z,15.98
2022-10-19T08:47:39.760Z,13.25
2022-10-19T08:50:23.293Z,13.18
2022-10-19T08:52:56.489Z,13.85
2022-10-19T08:55:35.897Z,12.90
2022-10-19T08:58:19.755Z,12.30
2022-10-19T09:00:56.277Z,16.25
2022-10-19T09:03:37.607Z,14.40
2022-10-19T09:06:22.452Z,11.77
2022-10-19T09:08:55.250Z,15.75
2022-10-19T09:11:30.242Z,13.98
2022-10-19T09:14:06.869Z,12.00
2022-10-19T09:16:37.546Z,13.23
2022-10-19T09:19:18.321Z,11.93
2022-10-19T09:21:55.408Z,14.35
2022-10-19T09:24:43.135Z,15.40
2022-10-19T09:27:20.000Z,14.13
2022-10-19T09:29:57.575Z,19.33
2022-10-19T09:32:40.019Z,14.63
2022-10-19T09:35:19.780Z,16.80
2022-10-19T09:37:52.168Z,12.57
2022-10-19T09:40:26.811Z,12.27
2022-10-19T09:43:08.870Z,11.70
2022-10-19T09:45:41.805Z,14.93
2022-10-19T09:48:19.458Z,13.60
2022-10-19T09:50:55.818Z,11.52
2022-10-19T09:53:30.103Z,11.95
2022-10-19T09:56:06.392Z,13.65
2022-10-19T09:58:48.807Z,13.77
2022-10-19T10:01:41.457Z,12.13
2022-10-19T10:04:14.904Z,11.77
2022-10-19T10:06:45.070Z,10.95
2022-10-19T10:09:20.256Z,12.70
2022-10-19T10:11:52.661Z,11.88
2022-10-19T10:14:26.714Z,13.88
2022-10-19T10:17:00.423Z,33.60
2022-10-19T10:19:32.053Z,10.73
2022-10-19T10:22:01.604Z,11.73
2022-10-19T10:24:35.266Z,12.90
2022-10-19T10:27:07.674Z,11.37
2022-10-19T10:29:40.087Z,12.10
2022-10-19T10:34:59.931Z,12.57
2022-10-19T10:37:32.816Z,9.80
2022-10-19T10:40:06.784Z,11.60
2022-10-19T10:42:43.030Z,9.60
2022-10-19T10:45:20.294Z,10.60
2022-10-19T10:47:51.630Z,10.43
2022-10-19T10:50:25.425Z,9.57
2022-10-19T10:53:13.890Z,9.48
2022-10-19T10:55:48.741Z,26.88
2022-10-19T10:58:25.500Z,11.63
2022-10-19T11:01:07.658Z,11.40
2022-10-19T11:03:44.575Z,12.35
2022-10-19T11:06:16.115Z,10.57
2022-10-19T11:08:50.175Z,7.18
2022-10-19T11:11:24.465Z,7.07
2022-10-19T11:14:02.959Z,6.60
2022-10-19T11:16:38.847Z,6.82
2022-10-19T11:21:53.773Z,6.10
2022-10-19T11:24:33.546Z,8.05
2022-10-19T11:27:15.760Z,8.02
2022-10-19T11:29:56.883Z,7.32
2022-10-19T11:32:38.162Z,7.53
2022-10-19T11:35:27.440Z,6.87
2022-10-19T11:38:19.444Z,7.07
2022-10-19T11:41:16.891Z,7.05
2022-10-19T11:43:58.286Z,6.25
2022-10-19T11:46:35.830Z,6.40
2022-10-19T11:49:20.690Z,9.70
2022-10-19T11:51:57.905Z,9.80
2022-10-19T11:54:42.026Z,6.13
2022-10-19T11:57:14.958Z,6.13
2022-10-19T12:00:08.290Z,6.32
2022-10-19T12:03:13.122Z,5.72
2022-10-19T12:05:54.653Z,7.70
2022-10-19T12:08:43.601Z,7.30
2022-10-19T12:11:30.496Z,8.27
2022-10-19T12:14:04.183Z,10.77
2022-10-19T12:16:41.245Z,5.90
2022-10-19T12:19:21.172Z,6.75
2022-10-19T12:21:54.996Z,8.55
2022-10-19T12:24:28.653Z,7.00
2022-10-19T12:27:01.504Z,6.53
2022-10-19T12:29:41.416Z,6.93
2022-10-19T12:32:16.764Z,6.47
2022-10-19T12:34:53.427Z,8.85
2022-10-19T12:37:30.289Z,7.85
2022-10-19T12:40:06.182Z,9.48
2022-10-19T12:42:40.283Z,7.22
2022-10-19T12:45:23.410Z,6.10
2022-10-19T12:48:21.683Z,6.57
2022-10-19T12:51:06.772Z,9.95
2022-10-19T12:53:40.422Z,8.05
2022-10-19T12:56:14.890Z,6.90
2022-10-19T12:58:51.236Z,7.65
2022-10-19T13:01:28.119Z,11.50
2022-10-19T13:04:10.570Z,9.45
2022-10-19T13:06:43.288Z,6.07
2022-10-19T13:09:24.546Z,13.68
2022-10-19T13:12:26.261Z,8.35
2022-10-19T13:14:55.929Z,6.53
2022-10-19T13:17:49.386Z,6.20
2022-10-19T13:20:49.741Z,7.65
2022-10-19T13:23:42.366Z,7.60
2022-10-19T13:26:35.569Z,16.88
2022-10-19T13:29:28.968Z,6.78
2022-10-19T13:32:18.497Z,7.97
2022-10-19T13:34:47.522Z,7.78
2022-10-19T13:37:23.855Z,7.32
2022-10-19T13:39:56.533Z,7.70
2022-10-19T13:42:28.634Z,8.70
2022-10-19T13:45:00.185Z,6.80
2022-10-19T13:50:37.408Z,7.03
2022-10-19T13:53:25.631Z,9.38
2022-10-19T13:56:14.627Z,7.43
2022-10-19T13:59:24.766Z,6.78
2022-10-19T14:02:17.496Z,7.57
2022-10-19T14:04:54.017Z,8.27
2022-10-19T14:07:28.452Z,7.70
2022-10-19T14:10:11.576Z,10.32
2022-10-19T14:12:43.347Z,9.07
2022-10-19T14:15:28.382Z,12.07
2022-10-19T14:18:06.157Z,7.68
2022-10-19T14:20:40.673Z,7.80
2022-10-19T14:23:24.586Z,10.98
2022-10-19T14:25:57.189Z,7.32
2022-10-19T14:28:28.751Z,11.95
2022-10-19T14:31:00.017Z,12.65
2022-10-19T14:33:37.158Z,9.15
2022-10-19T14:36:08.264Z,8.82
2022-10-19T14:38:46.523Z,9.38
2022-10-19T14:41:21.783Z,8.32
2022-10-19T14:43:55.139Z,10.85
2022-10-19T14:46:27.304Z,9.98
2022-10-19T14:49:01.719Z,11.07
2022-10-19T14:51:36.093Z,10.23
2022-10-19T14:54:08.748Z,10.85
2022-10-19T14:56:42.334Z,10.48
2022-10-19T14:59:23.540Z,11.02
2022-10-19T15:01:53.826Z,11.10
2022-10-19T15:04:27.680Z,9.32
2022-10-19T15:06:59.028Z,9.27
2022-10-19T15:09:37.288Z,8.43
2022-10-19T15:12:10.337Z,10.00
2022-10-19T15:14:39.300Z,9.68
2022-10-19T15:17:24.361Z,10.50
2022-10-19T15:20:00.108Z,9.95
2022-10-19T15:22:40.250Z,10.75
2022-10-19T15:25:29.252Z,9.70
2022-10-19T15:27:57.922Z,12.10
2022-10-19T15:30:29.853Z,11.05
2022-10-19T15:33:11.905Z,10.50
2022-10-19T15:35:44.297Z,9.40
2022-10-19T15:38:20.763Z,11.55
2022-10-19T15:40:49.521Z,8.98
2022-10-19T15:43:45.339Z,9.70
2022-10-19T15:46:25.787Z,14.00
2022-10-19T15:48:55.784Z,10.75
2022-10-19T15:51:45.615Z,14.25
2022-10-19T15:54:17.377Z,15.25
2022-10-19T15:56:47.607Z,11.43
2022-10-19T15:59:18.130Z,10.88
2022-10-19T16:01:52.415Z,12.05
2022-10-19T16:04:24.489Z,12.35
2022-10-19T16:06:54.239Z,12.13
2022-10-19T16:09:23.287Z,10.25
2022-10-19T16:11:57.044Z,14.23
2022-10-19T16:14:26.486Z,12.93
2022-10-19T16:17:04.014Z,9.27
2022-10-19T16:19:32.781Z,10.35
2022-10-19T16:22:02.542Z,11.43
2022-10-19T16:24:30.780Z,10.73
2022-10-19T16:27:00.315Z,10.82
2022-10-19T16:29:29.104Z,11.88
2022-10-19T16:31:57.553Z,12.68
2022-10-19T16:34:26.220Z,13.35
2022-10-19T16:36:56.377Z,11.57
2022-10-19T16:39:26.428Z,12.63
2022-10-19T16:41:54.671Z,12.75
2022-10-19T16:44:23.237Z,10.77
2022-10-19T16:46:51.772Z,13.32
2022-10-19T16:49:26.520Z,13.23
2022-10-19T16:51:57.792Z,10.50
2022-10-19T16:54:33.144Z,10.83
2022-10-19T16:57:08.656Z,10.90
2022-10-19T16:59:43.263Z,10.95
2022-10-19T17:02:13.840Z,14.02
2022-10-19T17:04:43.151Z,9.18
2022-10-19T17:07:20.482Z,11.32
2022-10-19T17:09:54.829Z,11.80
2022-10-19T17:12:27.171Z,13.15
2022-10-19T17:15:11.573Z,13.02
2022-10-19T17:17:47.815Z,9.80
2022-10-19T17:20:18.181Z,10.25
2022-10-19T17:22:55.610Z,11.65
2022-10-19T17:25:26.149Z,11.48
2022-10-19T17:27:56.600Z,10.75
2022-10-19T17:30:28.561Z,14.18
2022-10-19T17:33:01.726Z,12.07
2022-10-19T17:35:30.109Z,14.45
2022-10-19T17:37:59.164Z,10.02
2022-10-19T17:40:30.271Z,11.20
2022-10-19T17:42:59.527Z,13.85
2022-10-19T17:45:29.037Z,14.93
2022-10-19T17:47:58.278Z,12.23
2022-10-19T17:50:27.493Z,10.98
2022-10-19T17:52:56.502Z,13.82
2022-10-19T17:55:26.076Z,12.55
2022-10-19T17:57:56.233Z,11.93
2022-10-19T18:00:26.975Z,16.45
2022-10-19T18:02:58.185Z,11.43
2022-10-19T18:05:30.321Z,14.38
2022-10-19T18:07:58.796Z,12.77
2022-10-19T18:10:28.663Z,12.18
2022-10-19T18:13:01.148Z,13.10
2022-10-19T18:15:29.692Z,15.02
2022-10-19T18:18:00.534Z,14.10
2022-10-19T18:20:29.254Z,13.52
2022-10-19T18:22:57.984Z,14.30
2022-10-19T18:25:49.369Z,12.82
2022-10-19T18:28:19.252Z,13.07
2022-10-19T18:30:48.492Z,13.15
2022-10-19T18:33:19.280Z,16.83
2022-10-19T18:35:48.151Z,16.05
2022-10-19T18:38:16.947Z,15.88
2022-10-19T18:40:46.743Z,15.93
2022-10-19T18:43:16.400Z,14.52
2022-10-19T18:45:53.583Z,18.75
2022-10-19T18:48:24.192Z,12.75
2022-10-19T18:50:54.147Z,15.15
2022-10-19T18:53:23.419Z,17.50
2022-10-19T18:55:59.783Z,15.25
2022-10-19T18:58:30.498Z,15.93
2022-10-19T19:01:09.609Z,15.40
2022-10-19T19:03:43.554Z,15.30
2022-10-19T19:06:14.356Z,20.33
2022-10-19T19:11:20.694Z,16.50
2022-10-19T19:16:22.803Z,14.35
2022-10-19T19:18:54.687Z,12.70
2022-10-19T19:21:27.018Z,15.45
2022-10-19T19:23:59.751Z,13.48
2022-10-19T19:26:31.550Z,14.93
2022-10-19T19:29:00.261Z,13.80
2022-10-19T19:31:30.470Z,12.48
2022-10-19T19:34:02.083Z,12.15
2022-10-19T19:36:31.168Z,14.95
2022-10-19T19:39:00.663Z,14.07
2022-10-19T19:41:34.220Z,13.38
2022-10-19T19:44:04.949Z,12.35
2022-10-19T19:46:36.089Z,12.98
2022-10-19T19:49:06.657Z,14.20
2022-10-19T19:51:38.389Z,15.02
2022-10-19T19:54:08.651Z,16.02
2022-10-19T19:56:37.553Z,15.15
2022-10-19T19:59:06.411Z,14.20
2022-10-19T20:01:38.101Z,14.20
2022-10-19T20:04:07.242Z,14.57
2022-10-19T20:06:37.873Z,13.95
2022-10-19T20:09:07.852Z,19.85
2022-10-19T20:11:42.368Z,14.45
2022-10-19T20:14:12.764Z,12.70
2022-10-19T20:16:46.635Z,16.77
2022-10-19T20:19:18.641Z,18.80
2022-10-19T20:21:47.319Z,16.75
2022-10-19T20:24:16.666Z,20.15
2022-10-19T20:26:47.645Z,15.90
2022-10-19T20:29:18.748Z,14.85
2022-10-19T20:31:48.837Z,16.00
2022-10-19T20:34:23.853Z,14.93
2022-10-19T20:36:55.061Z,15.73
2022-10-19T20:39:24.185Z,15.50
2022-10-19T20:41:52.773Z,16.80
2022-10-19T20:44:21.934Z,16.40
2022-10-19T20:46:56.549Z,15.77
2022-10-19T20:49:28.592Z,14.45
2022-10-19T20:51:58.820Z,15.00
2022-10-19T20:54:28.060Z,15.75
2022-10-19T20:56:56.648Z,12.77
2022-10-19T20:59:30.398Z,13.27
2022-10-19T21:02:05.239Z,14.10
2022-10-19T21:04:33.456Z,13.80
2022-10-19T21:07:05.036Z,13.63
2022-10-19T21:09:38.050Z,15.00
2022-10-19T21:12:06.767Z,14.82
2022-10-19T21:14:37.127Z,13.85
2022-10-19T21:17:09.728Z,18.83
2022-10-19T21:19:43.181Z,16.08
2022-10-19T21:22:15.128Z,15.50
2022-10-19T21:24:47.391Z,15.18
2022-10-19T21:27:17.560Z,15.38
2022-10-19T21:29:48.386Z,16.35
2022-10-19T21:32:22.631Z,14.93
2022-10-19T21:34:51.600Z,14.95
2022-10-19T21:37:21.576Z,16.60
2022-10-19T21:39:56.956Z,18.25
2022-10-19T21:42:27.196Z,19.50
2022-10-19T21:45:06.232Z,20.58
2022-10-19T21:47:48.248Z,18.88
2022-10-19T21:50:20.913Z,15.77
2022-10-19T21:52:52.210Z,14.90
2022-10-19T21:55:21.288Z,15.73
2022-10-19T21:57:50.376Z,15.48
2022-10-19T22:00:19.738Z,14.23
2022-10-19T22:02:51.925Z,18.85
2022-10-19T22:05:20.127Z,15.90
2022-10-19T22:07:48.494Z,13.88
2022-10-19T22:10:20.492Z,16.85
2022-10-19T22:12:54.031Z,18.42
2022-10-19T22:15:22.948Z,17.00
2022-10-19T22:17:54.772Z,17.73
2022-10-19T22:20:27.885Z,16.10
2022-10-19T22:22:56.897Z,14.48
2022-10-19T22:25:28.895Z,15.20
2022-10-19T22:28:01.225Z,14.25
2022-10-19T22:30:34.230Z,12.60
2022-10-19T22:33:05.958Z,15.05
2022-10-19T22:35:36.639Z,15.63
2022-10-19T22:38:08.154Z,16.45
2022-10-19T22:40:38.806Z,15.07
2022-10-19T22:43:07.069Z,17.90
2022-10-19T22:45:35.377Z,14.38
2022-10-19T22:48:08.429Z,14.50
2022-10-19T22:50:37.090Z,17.02
2022-10-19T22:53:08.140Z,14.45
2022-10-19T22:55:38.300Z,15.55
2022-10-19T22:58:12.524Z,16.80
2022-10-19T23:00:41.408Z,14.75
2022-10-19T23:03:11.589Z,14.43
2022-10-19T23:05:40.134Z,15.00
2022-10-19T23:08:08.783Z,15.38
2022-10-19T23:10:37.316Z,15.00
2022-10-19T23:13:05.697Z,15.27
2022-10-19T23:15:43.127Z,13.85
2022-10-19T23:18:14.061Z,16.20
2022-10-19T23:20:46.650Z,14.57
2022-10-19T23:23:15.073Z,14.23
2022-10-19T23:25:44.853Z,15.32
2022-10-19T23:28:13.850Z,15.73
2022-10-19T23:30:42.390Z,16.65
2022-10-19T23:33:10.911Z,16.45
2022-10-19T23:35:41.291Z,15.45
2022-10-19T23:38:11.174Z,15.98
2022-10-19T23:40:39.417Z,13.95
2022-10-19T23:43:11.562Z,14.88
2022-10-19T23:45:41.794Z,16.00
2022-10-19T23:48:10.039Z,17.77
2022-10-19T23:50:39.760Z,16.05
2022-10-19T23:53:09.431Z,15.57
2022-10-19T23:55:37.537Z,13.77
2022-10-19T23:58:06.298Z,16.20
